Time;durP1;ratioP1;P1;durP2;ratioP2;P2;SDS_P1;SDS_P2;PMS_P1;PMS_P2;Temp;Humidity;BMP_temperature;BMP_pressure;BME280_temperature;BME280_humidity;BME280_pressure;Samples;Min_cycle;Max_cycle;Signal;HPM_P1;HPM_P2
2024/01/08 00:00:17;;;;;;;15.43;11.20;;;-7.00;62.40;;;;;;6305952;28;20226;-79
2024/01/08 00:03:20;;;;;;;12.77;10.40;;;-7.00;62.50;;;;;;6303788;28;20287;-78
2024/01/08 00:06:23;;;;;;;12.53;9.90;;;-7.10;62.50;;;;;;6300876;28;20364;-81
2024/01/08 00:09:27;;;;;;;11.17;9.50;;;-7.10;62.50;;;;;;6301988;28;20244;-78
2024/01/08 00:12:31;;;;;;;13.43;10.27;;;-7.00;62.20;;;;;;6307627;28;20236;-78
2024/01/08 00:15:34;;;;;;;11.97;10.77;;;-7.10;62.50;;;;;;6302172;28;20241;-80
2024/01/08 00:18:38;;;;;;;12.10;10.50;;;-7.10;62.50;;;;;;6305208;28;20339;-79
2024/01/08 00:21:41;;;;;;;10.90;9.77;;;-7.10;62.90;;;;;;6309975;28;20289;-80
2024/01/08 00:24:46;;;;;;;12.10;10.70;;;-7.10;62.70;;;;;;6318802;28;20232;-80
2024/01/08 00:27:50;;;;;;;12.37;10.03;;;-7.10;63.00;;;;;;6306949;28;20225;-81
2024/01/08 00:30:54;;;;;;;11.60;10.40;;;-7.10;62.90;;;;;;6296813;28;20251;-82
2024/01/08 00:33:57;;;;;;;11.03;9.93;;;-7.10;63.20;;;;;;6312682;28;20252;-81
2024/01/08 00:37:01;;;;;;;15.77;10.13;;;-7.10;63.20;;;;;;6308371;28;20245;-78
2024/01/08 00:40:05;;;;;;;11.57;10.10;;;-7.20;63.70;;;;;;6313752;28;20233;-81
2024/01/08 00:43:10;;;;;;;12.07;10.73;;;-7.20;63.60;;;;;;6306839;28;20236;-81
2024/01/08 00:46:13;;;;;;;12.33;10.30;;;-7.20;63.70;;;;;;6330721;28;20236;-78
2024/01/08 00:49:16;;;;;;;15.27;11.33;;;-7.20;63.70;;;;;;6336760;28;20483;-77
2024/01/08 00:52:19;;;;;;;11.27;9.97;;;-7.20;63.70;;;;;;6311556;28;20240;-82
2024/01/08 00:55:24;;;;;;;10.93;9.90;;;-7.20;63.80;;;;;;6303014;28;20323;-79
2024/01/08 00:58:30;;;;;;;13.80;11.07;;;-7.20;63.60;;;;;;6290417;28;20241;-81
2024/01/08 01:01:33;;;;;;;11.13;10.00;;;-7.20;63.80;;;;;;6298985;28;20240;-79
2024/01/08 01:04:36;;;;;;;11.57;10.30;;;-7.30;63.90;;;;;;6304592;28;20237;-81
2024/01/08 01:07:40;;;;;;;10.97;9.77;;;-7.30;64.00;;;;;;6303476;28;20277;-81
2024/01/08 01:10:43;;;;;;;10.87;9.23;;;-7.30;63.90;;;;;;6306540;28;20242;-80
2024/01/08 01:13:48;;;;;;;12.17;10.60;;;-7.30;64.00;;;;;;6306271;28;20287;-79
2024/01/08 01:16:51;;;;;;;11.53;10.37;;;-7.30;64.00;;;;;;6298528;28;20277;-81
2024/01/08 01:19:54;;;;;;;11.03;10.00;;;-7.30;64.00;;;;;;6303096;28;20312;-79
2024/01/08 01:22:58;;;;;;;11.27;9.57;;;-7.20;63.80;;;;;;6295223;28;20236;-80
2024/01/08 01:26:04;;;;;;;12.73;9.67;;;-7.30;63.90;;;;;;6300871;28;20229;-80
2024/01/08 01:29:08;;;;;;;12.13;10.07;;;-7.30;64.00;;;;;;6303209;28;20240;-79
2024/01/08 01:32:11;;;;;;;11.63;10.20;;;-7.30;63.60;;;;;;6293105;28;20241;-79
2024/01/08 01:35:15;;;;;;;12.37;9.97;;;-7.30;63.50;;;;;;6319468;28;20236;-81
2024/01/08 01:38:19;;;;;;;11.47;10.30;;;-7.40;64.00;;;;;;6295834;28;20336;-81
2024/01/08 01:41:22;;;;;;;11.63;9.93;;;-7.40;64.20;;;;;;6277527;28;20237;-81
2024/01/08 01:44:29;;;;;;;12.03;10.80;;;-7.40;64.20;;;;;;6304771;28;20232;-81
2024/01/08 01:47:33;;;;;;;12.83;10.47;;;-7.40;64.10;;;;;;6305231;28;20266;-82
2024/01/08 01:50:36;;;;;;;11.50;9.67;;;-7.30;64.10;;;;;;6304231;28;20233;-81
2024/01/08 01:53:40;;;;;;;11.33;10.33;;;-7.40;64.00;;;;;;6302383;28;20339;-82
2024/01/08 01:56:47;;;;;;;11.67;9.97;;;-7.40;64.40;;;;;;6295334;28;20283;-81
2024/01/08 01:59:51;;;;;;;11.83;9.73;;;-7.40;64.60;;;;;;6300156;28;20247;-82
2024/01/08 02:02:55;;;;;;;11.87;10.33;;;-7.40;64.30;;;;;;6309541;28;20239;-81
2024/01/08 02:05:58;;;;;;;13.93;10.77;;;-7.50;64.20;;;;;;6292582;28;20232;-81
2024/01/08 02:09:03;;;;;;;11.43;10.23;;;-7.40;64.30;;;;;;6305307;28;20228;-80
2024/01/08 02:12:07;;;;;;;10.10;9.20;;;-7.50;64.00;;;;;;6308347;28;20304;-80
2024/01/08 02:15:15;;;;;;;14.50;11.10;;;-7.50;64.10;;;;;;6314366;28;20241;-80
2024/01/08 02:18:20;;;;;;;10.73;9.60;;;-7.50;64.00;;;;;;6303640;28;20241;-81
2024/01/08 02:21:23;;;;;;;11.80;10.00;;;-7.50;64.10;;;;;;6309242;28;20234;-80
2024/01/08 02:24:29;;;;;;;11.93;10.33;;;-7.50;63.90;;;;;;6318236;28;20326;-80
2024/01/08 02:27:32;;;;;;;13.37;10.43;;;-7.50;63.50;;;;;;6317908;28;20240;-80
2024/01/08 02:30:35;;;;;;;10.73;9.73;;;-7.50;63.50;;;;;;6312908;28;20619;-79
2024/01/08 02:33:38;;;;;;;13.37;10.37;;;-7.50;63.20;;;;;;6324097;28;20236;-79
2024/01/08 02:36:41;;;;;;;11.73;10.53;;;-7.50;63.00;;;;;;6331683;28;20237;-80
2024/01/08 02:39:46;;;;;;;11.70;10.50;;;-7.50;62.90;;;;;;6325556;28;20290;-79
2024/01/08 02:42:49;;;;;;;11.40;10.40;;;-7.50;62.90;;;;;;6322046;28;20847;-78
2024/01/08 02:45:52;;;;;;;11.37;10.30;;;-7.50;62.10;;;;;;6314444;28;20423;-76
2024/01/08 02:48:56;;;;;;;10.80;9.70;;;-7.60;61.50;;;;;;6319708;28;20228;-81
2024/01/08 02:51:59;;;;;;;11.43;10.23;;;-7.60;61.50;;;;;;6310233;28;20225;-80
2024/01/08 02:55:04;;;;;;;12.17;9.50;;;-7.60;62.00;;;;;;6320196;28;20233;-80
2024/01/08 02:58:08;;;;;;;10.53;9.50;;;-7.60;61.80;;;;;;6321569;28;20239;-78
2024/01/08 03:01:12;;;;;;;11.90;10.70;;;-7.50;61.50;;;;;;6321261;28;20711;-78
2024/01/08 03:04:15;;;;;;;9.97;9.07;;;-7.50;61.50;;;;;;6324898;28;20300;-78
2024/01/08 03:07:20;;;;;;;10.03;9.13;;;-7.60;61.70;;;;;;6336004;28;20241;-80
2024/01/08 03:10:24;;;;;;;11.20;10.10;;;-7.60;61.30;;;;;;6319716;28;20248;-78
2024/01/08 03:13:29;;;;;;;10.37;9.37;;;-7.60;61.50;;;;;;6321845;28;20821;-80
2024/01/08 03:16:33;;;;;;;11.73;10.53;;;-7.60;61.30;;;;;;6300747;28;20252;-80
2024/01/08 03:19:37;;;;;;;13.17;10.10;;;-7.60;61.60;;;;;;6301329;28;20232;-79
2024/01/08 03:22:40;;;;;;;10.90;9.80;;;-7.60;61.50;;;;;;6312876;28;20779;-80
2024/01/08 03:25:45;;;;;;;11.00;9.67;;;-7.60;61.80;;;;;;6300004;28;20884;-80
2024/01/08 03:28:48;;;;;;;12.50;9.80;;;-7.60;61.60;;;;;;6300551;28;20249;-79
2024/01/08 03:31:51;;;;;;;10.40;9.37;;;-7.60;61.50;;;;;;6305810;28;20382;-81
2024/01/08 03:34:54;;;;;;;10.63;9.50;;;-7.60;61.90;;;;;;6312109;28;20241;-80
2024/01/08 03:37:58;;;;;;;10.57;9.53;;;-7.70;62.00;;;;;;6319859;28;20810;-80
2024/01/08 03:41:03;;;;;;;11.27;10.17;;;-7.60;62.00;;;;;;6315858;28;20818;-81
2024/01/08 03:44:07;;;;;;;11.97;10.70;;;-7.60;61.60;;;;;;6308233;28;20235;-81
2024/01/08 03:47:11;;;;;;;11.60;9.57;;;-7.70;61.80;;;;;;6317705;28;20318;-81
2024/01/08 03:50:14;;;;;;;10.83;9.70;;;-7.60;61.80;;;;;;6312357;28;20289;-81
2024/01/08 03:53:17;;;;;;;11.93;10.33;;;-7.70;61.70;;;;;;6304000;28;20260;-79
2024/01/08 03:56:22;;;;;;;15.13;9.87;;;-7.70;61.70;;;;;;6292964;28;20240;-79
2024/01/08 03:59:26;;;;;;;11.07;9.77;;;-7.70;61.60;;;;;;6316840;28;20300;-80
2024/01/08 04:02:29;;;;;;;11.17;9.60;;;-7.70;62.00;;;;;;6321811;28;20271;-79
2024/01/08 04:05:32;;;;;;;17.83;10.37;;;-7.70;62.20;;;;;;6324774;28;20239;-79
2024/01/08 04:08:36;;;;;;;11.00;9.30;;;-7.70;61.90;;;;;;6331706;28;20235;-82
2024/01/08 04:11:43;;;;;;;14.40;11.07;;;-7.70;62.00;;;;;;6317766;28;20251;-78
2024/01/08 04:14:46;;;;;;;11.20;10.13;;;-7.70;62.30;;;;;;6324672;28;20236;-79
2024/01/08 04:17:50;;;;;;;12.27;9.73;;;-7.70;62.50;;;;;;6321021;28;20327;-80
2024/01/08 04:20:53;;;;;;;11.33;10.17;;;-7.70;62.70;;;;;;6310609;28;20244;-79
2024/01/08 04:23:57;;;;;;;11.37;10.13;;;-7.70;62.90;;;;;;6302646;28;20640;-81
2024/01/08 04:27:01;;;;;;;11.57;9.73;;;-7.70;62.50;;;;;;6302176;28;20781;-81
2024/01/08 04:30:05;;;;;;;9.87;8.87;;;-7.70;62.40;;;;;;6297964;28;20705;-80
2024/01/08 04:33:09;;;;;;;10.07;8.97;;;-7.70;62.00;;;;;;6304821;28;20282;-78
2024/01/08 04:36:13;;;;;;;11.33;10.23;;;-7.70;62.00;;;;;;6307393;28;20238;-81
2024/01/08 04:39:19;;;;;;;11.47;10.20;;;-7.70;62.30;;;;;;6313793;28;20240;-80
2024/01/08 04:42:23;;;;;;;10.60;9.47;;;-7.70;62.50;;;;;;6302927;28;20239;-81
2024/01/08 04:45:26;;;;;;;11.40;9.67;;;-7.70;62.50;;;;;;6324211;28;20252;-82
2024/01/08 04:48:30;;;;;;;11.23;10.13;;;-7.70;62.70;;;;;;6315076;28;20251;-82
2024/01/08 04:51:33;;;;;;;11.27;10.07;;;-7.70;62.80;;;;;;6318160;28;20232;-81
2024/01/08 04:54:37;;;;;;;12.23;10.63;;;-7.70;62.90;;;;;;6296630;28;20244;-81
2024/01/08 04:57:42;;;;;;;10.37;9.27;;;-7.70;62.60;;;;;;6311570;28;20263;-82
2024/01/08 05:00:45;;;;;;;9.50;8.73;;;-7.70;62.80;;;;;;6311115;28;20252;-80
2024/01/08 05:03:48;;;;;;;11.13;10.13;;;-7.70;62.70;;;;;;6294311;28;20770;-83
2024/01/08 05:06:51;;;;;;;11.97;10.73;;;-7.70;62.60;;;;;;6297210;28;20634;-81
2024/01/08 05:09:54;;;;;;;11.70;9.90;;;-7.70;62.90;;;;;;6308505;28;20240;-82
2024/01/08 05:12:59;;;;;;;13.97;11.20;;;-7.70;63.00;;;;;;6291806;28;20778;-80
2024/01/08 05:16:02;;;;;;;11.87;10.20;;;-7.70;62.60;;;;;;6304240;28;20335;-81
2024/01/08 05:19:05;;;;;;;11.60;9.97;;;-7.70;62.70;;;;;;6300693;28;20251;-81
2024/01/08 05:22:09;;;;;;;10.93;9.83;;;-7.70;62.90;;;;;;6310523;28;20834;-84
2024/01/08 05:25:12;;;;;;;12.77;10.90;;;-7.70;63.00;;;;;;6297950;28;20307;-81
2024/01/08 05:28:17;;;;;;;12.43;10.30;;;-7.70;63.20;;;;;;6300658;28;20231;-81
2024/01/08 05:31:22;;;;;;;13.17;10.93;;;-7.70;63.00;;;;;;6310565;28;20243;-82
2024/01/08 05:34:26;;;;;;;11.90;10.17;;;-7.70;63.10;;;;;;6298164;28;20248;-81
2024/01/08 05:37:29;;;;;;;11.47;10.27;;;-7.70;63.10;;;;;;6304414;28;20321;-82
2024/01/08 05:40:32;;;;;;;11.23;10.13;;;-7.70;63.20;;;;;;6306156;28;20864;-82
2024/01/08 05:43:38;;;;;;;12.33;9.57;;;-7.70;63.30;;;;;;6305662;28;20240;-81
2024/01/08 05:46:43;;;;;;;12.50;10.20;;;-7.70;63.40;;;;;;6307832;28;20244;-82
2024/01/08 05:49:47;;;;;;;13.87;10.50;;;-7.70;63.40;;;;;;6302392;28;20313;-79
2024/01/08 05:52:50;;;;;;;11.50;9.90;;;-7.70;63.60;;;;;;6319828;28;20233;-79
2024/01/08 05:55:53;;;;;;;14.67;9.97;;;-7.70;63.70;;;;;;6321995;28;20235;-83
2024/01/08 05:58:59;;;;;;;11.50;10.30;;;-7.70;63.80;;;;;;6304103;28;20236;-81
2024/01/08 06:02:02;;;;;;;11.80;10.63;;;-7.70;63.90;;;;;;6303491;28;20247;-80
2024/01/08 06:05:06;;;;;;;11.23;10.23;;;-7.70;63.90;;;;;;6305359;28;20780;-78
2024/01/08 06:08:09;;;;;;;12.07;10.83;;;-7.70;64.00;;;;;;6307051;28;20233;-81
2024/01/08 06:11:13;;;;;;;11.40;9.73;;;-7.70;63.90;;;;;;6305542;28;20278;-74
2024/01/08 06:14:17;;;;;;;10.37;9.43;;;-7.70;64.00;;;;;;6302270;28;20247;-77
2024/01/08 06:17:21;;;;;;;11.00;10.00;;;-7.70;64.00;;;;;;6316013;28;20248;-80
2024/01/08 06:20:24;;;;;;;12.73;10.50;;;-7.70;64.00;;;;;;6300949;28;20241;-80
2024/01/08 06:23:27;;;;;;;12.93;10.37;;;-7.70;64.30;;;;;;6310853;28;20290;-81
2024/01/08 06:26:31;;;;;;;12.23;11.10;;;-7.70;64.00;;;;;;6318382;28;20242;-78
2024/01/08 06:29:35;;;;;;;11.40;10.23;;;-7.70;63.90;;;;;;6295810;28;20233;-82
2024/01/08 06:32:39;;;;;;;17.10;10.77;;;-7.70;64.10;;;;;;6298283;28;20315;-80
2024/01/08 06:35:42;;;;;;;12.93;10.93;;;-7.70;64.30;;;;;;6309900;28;20240;-78
2024/01/08 06:38:46;;;;;;;11.87;10.67;;;-7.70;64.70;;;;;;6303500;28;20295;-78
2024/01/08 06:41:49;;;;;;;13.63;11.20;;;-7.70;64.90;;;;;;6307084;28;20256;-78
2024/01/08 06:44:54;;;;;;;12.90;10.90;;;-7.70;65.10;;;;;;6312850;28;20328;-79
2024/01/08 06:47:57;;;;;;;12.07;10.77;;;-7.70;65.50;;;;;;6304334;28;20234;-77
2024/01/08 06:51:01;;;;;;;12.57;11.27;;;-7.70;65.50;;;;;;6301144;28;20727;-76
2024/01/08 06:54:05;;;;;;;15.33;10.80;;;-7.70;65.50;;;;;;6305666;28;20789;-77
2024/01/08 06:57:08;;;;;;;12.37;11.00;;;-7.70;65.80;;;;;;6313399;28;20228;-79
2024/01/08 07:00:13;;;;;;;13.47;10.93;;;-7.80;65.90;;;;;;6318054;28;20232;-75
2024/01/08 07:03:17;;;;;;;13.53;11.30;;;-7.70;66.10;;;;;;6307668;28;20283;-78
2024/01/08 07:06:20;;;;;;;12.87;11.37;;;-7.70;66.10;;;;;;6309424;28;20239;-78
2024/01/08 07:09:24;;;;;;;17.33;11.43;;;-7.70;66.40;;;;;;6311249;28;20269;-78
2024/01/08 07:12:27;;;;;;;13.47;10.97;;;-7.70;66.40;;;;;;6304651;28;20229;-75
2024/01/08 07:15:42;;;;;;;13.07;11.73;;;-7.70;66.30;;;;;;6297594;28;20236;-77
2024/01/08 07:18:45;;;;;;;15.23;12.00;;;-7.70;66.70;;;;;;6306118;28;20237;-77
2024/01/08 07:21:49;;;;;;;12.40;11.20;;;-7.70;66.50;;;;;;6309431;28;20278;-79
2024/01/08 07:24:52;;;;;;;12.30;11.10;;;-7.80;66.70;;;;;;6313180;28;20297;-77
2024/01/08 07:27:55;;;;;;;15.00;12.07;;;-7.70;66.80;;;;;;6299685;28;20236;-78
2024/01/08 07:31:00;;;;;;;13.33;11.67;;;-7.70;66.80;;;;;;6301627;28;20237;-78
2024/01/08 07:34:04;;;;;;;15.20;11.87;;;-7.70;66.70;;;;;;6309187;28;20319;-78
2024/01/08 07:37:07;;;;;;;13.47;12.03;;;-7.70;66.90;;;;;;6301647;28;20225;-78
2024/01/08 07:40:11;;;;;;;14.10;11.47;;;-7.70;66.90;;;;;;6303776;28;20236;-78
2024/01/08 07:43:14;;;;;;;13.17;11.63;;;-7.60;67.00;;;;;;6312670;28;20248;-76
2024/01/08 07:46:18;;;;;;;13.60;12.20;;;-7.60;66.80;;;;;;6293585;28;20244;-78
2024/01/08 07:49:21;;;;;;;15.73;11.87;;;-7.60;66.90;;;;;;6306192;28;20237;-78
2024/01/08 07:52:25;;;;;;;14.43;11.17;;;-7.60;66.90;;;;;;6312107;28;20244;-76
2024/01/08 07:55:40;;;;;;;14.80;11.83;;;-7.50;66.50;;;;;;6290513;28;20232;-77
2024/01/08 07:58:43;;;;;;;13.77;12.00;;;-7.50;66.90;;;;;;6302120;28;20226;-77
2024/01/08 08:01:48;;;;;;;16.77;12.40;;;-7.50;66.70;;;;;;6308554;28;20259;-76
2024/01/08 08:04:52;;;;;;;13.47;11.67;;;-7.50;66.90;;;;;;6311897;28;20616;-78
2024/01/08 08:07:55;;;;;;;14.33;11.57;;;-7.40;66.50;;;;;;6308303;28;20293;-78
2024/01/08 08:10:59;;;;;;;14.00;11.17;;;-7.30;66.80;;;;;;6311228;28;20672;-75
2024/01/08 08:14:02;;;;;;;13.90;11.90;;;-7.20;66.80;;;;;;6313473;28;20229;-76
2024/01/08 08:17:07;;;;;;;16.30;11.87;;;-7.10;66.50;;;;;;6312279;28;20240;-79
2024/01/08 08:20:12;;;;;;;13.00;10.67;;;-7.10;66.30;;;;;;6315252;28;20254;-79
2024/01/08 08:23:15;;;;;;;11.87;10.53;;;-7.10;66.40;;;;;;6306683;28;20228;-78
2024/01/08 08:26:18;;;;;;;13.17;10.77;;;-7.10;66.00;;;;;;6301944;28;20263;-78
2024/01/08 08:29:22;;;;;;;13.30;11.93;;;-7.10;65.90;;;;;;6312603;28;20323;-78
2024/01/08 08:32:28;;;;;;;13.57;11.17;;;-7.00;65.90;;;;;;6302586;28;20237;-78
2024/01/08 08:35:34;;;;;;;13.67;11.60;;;-6.90;65.90;;;;;;6301185;28;20241;-77
2024/01/08 08:38:38;;;;;;;11.90;10.63;;;-6.90;65.50;;;;;;6310298;28;20232;-77
2024/01/08 08:41:45;;;;;;;13.67;12.17;;;-6.70;65.30;;;;;;6318114;28;20239;-77
2024/01/08 08:44:48;;;;;;;12.30;11.00;;;-6.60;65.00;;;;;;6303470;28;20263;-78
2024/01/08 08:47:53;;;;;;;14.27;11.53;;;-6.60;65.00;;;;;;6305183;28;20737;-78
2024/01/08 08:50:56;;;;;;;15.00;11.57;;;-6.60;64.60;;;;;;6317271;28;20243;-77
2024/01/08 08:54:03;;;;;;;12.67;11.37;;;-6.50;64.50;;;;;;6316343;28;20228;-78
2024/01/08 08:57:06;;;;;;;11.77;10.57;;;-6.40;64.70;;;;;;6307724;28;20232;-76
2024/01/08 09:00:10;;;;;;;12.10;10.67;;;-6.20;64.30;;;;;;6309231;28;20663;-77
2024/01/08 09:03:18;;;;;;;12.03;10.73;;;-6.20;63.90;;;;;;6299645;28;20667;-78
2024/01/08 09:06:23;;;;;;;12.13;10.67;;;-6.10;64.20;;;;;;6313800;28;20247;-78
2024/01/08 09:09:27;;;;;;;11.93;10.73;;;-6.00;63.70;;;;;;6306422;28;20278;-78
2024/01/08 09:12:30;;;;;;;12.10;10.90;;;-6.00;63.60;;;;;;6311539;28;20239;-77
2024/01/08 09:15:33;;;;;;;15.67;11.10;;;-5.90;63.60;;;;;;6314336;28;20535;-78
2024/01/08 09:18:38;;;;;;;12.63;11.33;;;-5.80;62.90;;;;;;6306051;28;20274;-77
2024/01/08 09:21:45;;;;;;;11.53;10.20;;;-5.70;63.00;;;;;;6306793;28;20782;-76
2024/01/08 09:24:48;;;;;;;11.47;10.30;;;-5.70;62.50;;;;;;6304327;28;20320;-79
2024/01/08 09:27:51;;;;;;;13.23;10.40;;;-5.60;62.20;;;;;;6309018;28;20244;-78
2024/01/08 09:30:55;;;;;;;12.30;10.80;;;-5.50;61.80;;;;;;6305448;28;20233;-79
2024/01/08 09:33:59;;;;;;;10.67;9.73;;;-5.60;61.50;;;;;;6303032;28;21050;-77
2024/01/08 09:37:03;;;;;;;11.50;10.27;;;-5.50;61.80;;;;;;6300673;28;20235;-76
2024/01/08 09:40:07;;;;;;;11.70;10.40;;;-5.40;61.40;;;;;;6307741;28;20244;-79
2024/01/08 09:43:15;;;;;;;12.83;11.07;;;-5.40;61.50;;;;;;6297949;28;20232;-79
2024/01/08 09:46:25;;;;;;;11.40;9.67;;;-5.20;61.20;;;;;;6297940;28;20252;-78
2024/01/08 09:49:32;;;;;;;12.20;9.77;;;-5.00;61.30;;;;;;6294016;28;20612;-78
2024/01/08 09:52:39;;;;;;;15.93;10.00;;;-4.90;60.40;;;;;;6296588;28;20240;-77
2024/01/08 09:55:46;;;;;;;10.70;9.60;;;-4.90;60.00;;;;;;6307324;28;20233;-77
2024/01/08 09:58:49;;;;;;;11.90;10.80;;;-4.90;59.70;;;;;;6308862;28;20228;-78
2024/01/08 10:01:54;;;;;;;11.13;9.80;;;-4.90;59.90;;;;;;6300659;28;20240;-77
2024/01/08 10:04:59;;;;;;;10.57;9.57;;;-4.70;59.90;;;;;;6306297;28;20938;-78
2024/01/08 10:08:03;;;;;;;10.33;9.33;;;-4.60;59.30;;;;;;6310459;28;20242;-76
2024/01/08 10:11:07;;;;;;;9.93;9.13;;;-4.60;59.00;;;;;;6306239;28;20233;-78
2024/01/08 10:14:11;;;;;;;11.87;9.23;;;-4.60;58.90;;;;;;6305197;28;20249;-77
2024/01/08 10:17:15;;;;;;;10.03;9.13;;;-4.40;58.20;;;;;;6299906;28;20243;-78
2024/01/08 10:20:20;;;;;;;9.87;8.80;;;-4.30;58.40;;;;;;6296030;28;20244;-77
2024/01/08 10:23:25;;;;;;;9.73;8.83;;;-4.20;58.20;;;;;;6289619;28;20301;-77
2024/01/08 10:26:30;;;;;;;9.83;8.83;;;-4.10;57.90;;;;;;6303371;28;20277;-76
2024/01/08 10:29:33;;;;;;;8.60;7.80;;;-4.10;57.30;;;;;;6309467;28;20236;-78
2024/01/08 10:32:38;;;;;;;9.43;8.53;;;-4.00;56.70;;;;;;6305399;28;20237;-77
2024/01/08 10:35:43;;;;;;;8.97;8.17;;;-3.90;56.20;;;;;;6299142;28;20960;-76
2024/01/08 10:38:47;;;;;;;8.53;7.83;;;-4.10;55.90;;;;;;6304545;28;20224;-76
2024/01/08 10:41:51;;;;;;;9.33;8.53;;;-4.00;55.60;;;;;;6305753;28;20221;-77
2024/01/08 10:44:54;;;;;;;9.33;8.23;;;-4.00;55.40;;;;;;6307012;28;20306;-78
2024/01/08 10:48:06;;;;;;;8.70;7.90;;;-3.90;55.40;;;;;;6310424;28;20228;-78
2024/01/08 10:51:11;;;;;;;9.43;7.97;;;-3.80;55.00;;;;;;6312104;28;20285;-76
2024/01/08 10:54:19;;;;;;;8.63;7.93;;;-3.80;54.70;;;;;;6308948;28;20240;-77
2024/01/08 10:57:31;;;;;;;9.03;8.43;;;-3.70;54.10;;;;;;6314594;28;20326;-77
2024/01/08 11:00:35;;;;;;;13.83;9.03;;;-3.60;54.00;;;;;;6312084;28;20241;-78
2024/01/08 11:03:38;;;;;;;9.03;8.23;;;-3.60;53.50;;;;;;6313120;28;20366;-77
2024/01/08 11:06:45;;;;;;;9.17;8.47;;;-3.60;53.90;;;;;;6317501;28;20248;-78
2024/01/08 11:09:49;;;;;;;9.13;8.27;;;-3.50;54.10;;;;;;6306790;28;20347;-78
2024/01/08 11:12:54;;;;;;;8.70;8.00;;;-3.40;53.70;;;;;;6306148;28;20311;-76
2024/01/08 11:16:00;;;;;;;8.77;7.97;;;-3.40;53.10;;;;;;6288441;28;20228;-76
2024/01/08 11:19:26;;;;;;;9.17;8.47;;;-3.50;52.60;;;;;;6298430;28;20281;-81
2024/01/08 11:22:31;;;;;;;8.43;7.83;;;-3.50;52.70;;;;;;6302676;28;20237;-77
2024/01/08 11:25:34;;;;;;;9.10;8.30;;;-3.60;53.60;;;;;;6296998;28;20240;-78
2024/01/08 11:28:39;;;;;;;7.93;7.33;;;-3.40;53.70;;;;;;6312413;28;20229;-77
2024/01/08 11:32:17;;;;;;;8.63;7.90;;;-3.20;53.70;;;;;;6312221;28;20390;-77
2024/01/08 11:35:21;;;;;;;10.03;7.87;;;-3.10;52.70;;;;;;6310770;28;20381;-77
2024/01/08 11:38:27;;;;;;;8.40;7.80;;;-3.10;52.30;;;;;;6308690;28;20759;-79
2024/01/08 11:41:31;;;;;;;8.23;7.40;;;-3.10;51.80;;;;;;6306501;28;20248;-78
2024/01/08 11:44:34;;;;;;;8.67;7.77;;;-3.10;51.40;;;;;;6297007;28;20314;-79
2024/01/08 11:47:38;;;;;;;9.47;7.70;;;-3.20;51.20;;;;;;6303002;28;20349;-77
2024/01/08 11:50:42;;;;;;;9.07;8.27;;;-3.10;51.50;;;;;;6313483;28;20232;-75
2024/01/08 11:53:50;;;;;;;8.13;7.50;;;-3.00;50.60;;;;;;6304257;28;20248;-76
2024/01/08 11:56:54;;;;;;;8.97;7.90;;;-3.10;50.70;;;;;;6303725;28;20467;-78
2024/01/08 11:59:57;;;;;;;8.90;8.13;;;-3.20;51.00;;;;;;6312562;28;20248;-77
2024/01/08 12:03:03;;;;;;;8.50;7.80;;;-3.20;51.80;;;;;;6291433;28;20229;-78
2024/01/08 12:06:07;;;;;;;8.00;7.40;;;-3.10;51.10;;;;;;6312979;28;20362;-78
2024/01/08 12:09:12;;;;;;;7.90;7.20;;;-3.10;50.50;;;;;;6313331;28;20240;-76
2024/01/08 12:12:16;;;;;;;8.30;7.50;;;-3.00;50.70;;;;;;6306733;28;20859;-77
2024/01/08 12:15:21;;;;;;;7.50;6.90;;;-3.00;50.40;;;;;;6288738;28;20317;-77
2024/01/08 12:18:24;;;;;;;8.27;7.60;;;-3.10;49.90;;;;;;6320863;28;20228;-76
2024/01/08 12:21:28;;;;;;;7.00;6.60;;;-3.10;50.20;;;;;;6305400;28;20255;-76
2024/01/08 12:24:50;;;;;;;7.57;7.00;;;-3.00;50.30;;;;;;6297018;28;20371;-78
2024/01/08 12:28:00;;;;;;;8.33;7.10;;;-3.10;49.90;;;;;;6303579;28;20387;-77
2024/01/08 12:31:03;;;;;;;7.93;7.33;;;-3.10;49.60;;;;;;6305307;28;20229;-77
2024/01/08 12:34:09;;;;;;;9.77;7.23;;;-3.20;49.70;;;;;;6308694;28;20890;-77
2024/01/08 12:37:14;;;;;;;7.70;7.10;;;-3.10;49.70;;;;;;6303271;28;20719;-79
2024/01/08 12:40:20;;;;;;;7.77;7.13;;;-3.00;48.30;;;;;;6306259;28;20257;-76
2024/01/08 12:43:24;;;;;;;8.17;7.47;;;-3.00;48.70;;;;;;6307331;28;20335;-77
2024/01/08 12:46:27;;;;;;;8.60;7.60;;;-3.00;49.10;;;;;;6306170;28;20248;-79
2024/01/08 12:49:30;;;;;;;8.27;7.57;;;-3.00;49.20;;;;;;6309954;28;20243;-76
2024/01/08 12:52:33;;;;;;;7.50;7.07;;;-3.10;49.40;;;;;;6304288;28;20289;-78
2024/01/08 12:55:38;;;;;;;8.27;7.43;;;-3.20;48.90;;;;;;6305879;28;20241;-77
2024/01/08 12:58:42;;;;;;;8.27;7.47;;;-3.20;49.10;;;;;;6309038;28;20986;-79
2024/01/08 13:01:45;;;;;;;7.80;7.00;;;-3.10;49.80;;;;;;6295425;28;20954;-76
2024/01/08 13:04:49;;;;;;;7.73;7.10;;;-3.00;49.80;;;;;;6308104;28;20645;-76
2024/01/08 13:07:52;;;;;;;7.30;6.77;;;-2.90;49.70;;;;;;6308389;28;20828;-79
2024/01/08 13:10:57;;;;;;;7.13;6.70;;;-2.90;49.10;;;;;;6310708;28;20240;-76
2024/01/08 13:14:00;;;;;;;8.23;7.50;;;-2.90;49.10;;;;;;6307647;28;20351;-76
2024/01/08 13:17:04;;;;;;;6.77;6.47;;;-3.00;49.00;;;;;;6308766;28;20232;-77
2024/01/08 13:20:08;;;;;;;7.73;7.03;;;-3.10;48.40;;;;;;6304814;28;20286;-78
2024/01/08 13:23:28;;;;;;;6.77;6.37;;;-3.10;49.20;;;;;;6301868;28;20268;-78
2024/01/08 13:26:32;;;;;;;7.60;7.10;;;-3.10;48.60;;;;;;6313604;28;20228;-77
2024/01/08 13:29:36;;;;;;;6.87;6.43;;;-3.10;49.10;;;;;;6297074;28;20240;-78
2024/01/08 13:32:39;;;;;;;7.47;6.87;;;-3.20;49.30;;;;;;6302925;28;20244;-78
2024/01/08 13:35:42;;;;;;;23.17;7.10;;;-3.20;49.10;;;;;;6303319;28;20319;-79
2024/01/08 13:38:45;;;;;;;7.73;7.13;;;-3.20;49.50;;;;;;6305800;28;20240;-77
2024/01/08 13:41:50;;;;;;;6.97;6.23;;;-3.20;49.40;;;;;;6316725;28;20236;-76
2024/01/08 13:44:54;;;;;;;6.40;6.10;;;-3.20;49.50;;;;;;6305380;28;20229;-77
2024/01/08 13:47:57;;;;;;;7.93;6.53;;;-3.40;49.40;;;;;;6310208;28;20851;-77
2024/01/08 13:51:00;;;;;;;7.53;6.63;;;-3.50;49.70;;;;;;6313839;28;20228;-76
2024/01/08 13:54:05;;;;;;;6.97;6.37;;;-3.50;50.10;;;;;;6295715;28;20236;-78
2024/01/08 13:57:09;;;;;;;7.10;6.60;;;-3.60;50.80;;;;;;6306820;28;20717;-76
2024/01/08 14:00:14;;;;;;;7.03;6.60;;;-3.60;50.70;;;;;;6308126;28;20319;-77
2024/01/08 14:03:19;;;;;;;6.73;6.10;;;-3.60;50.80;;;;;;6303163;28;20245;-75
2024/01/08 14:06:22;;;;;;;7.13;6.63;;;-3.80;51.30;;;;;;6306416;28;20650;-78
2024/01/08 14:09:25;;;;;;;9.43;7.20;;;-3.80;51.80;;;;;;6299792;28;20232;-78
2024/01/08 14:12:30;;;;;;;8.30;7.40;;;-3.80;52.10;;;;;;6301095;28;20236;-77
2024/01/08 14:15:33;;;;;;;7.60;7.10;;;-3.90;52.10;;;;;;6303573;28;20278;-78
2024/01/08 14:18:36;;;;;;;7.50;6.90;;;-4.00;52.60;;;;;;6299580;28;20229;-77
2024/01/08 14:21:41;;;;;;;7.90;7.20;;;-4.00;52.80;;;;;;6298263;28;20657;-78
2024/01/08 14:24:44;;;;;;;7.83;7.30;;;-4.00;52.90;;;;;;6297998;28;20237;-75
2024/01/08 14:27:49;;;;;;;7.63;7.10;;;-4.10;53.10;;;;;;6291176;28;20248;-79
2024/01/08 14:30:52;;;;;;;8.00;7.23;;;-4.20;53.40;;;;;;6288422;28;20257;-77
2024/01/08 14:33:56;;;;;;;7.30;6.80;;;-4.20;53.80;;;;;;6318048;28;20233;-75
2024/01/08 14:36:59;;;;;;;7.87;7.30;;;-4.40;54.40;;;;;;6300492;28;20863;-77
2024/01/08 14:40:02;;;;;;;7.40;6.77;;;-4.40;54.60;;;;;;6296455;28;20241;-78
2024/01/08 14:43:09;;;;;;;8.40;7.73;;;-4.60;54.80;;;;;;6296910;28;20240;-78
2024/01/08 14:46:13;;;;;;;9.10;7.60;;;-4.60;55.30;;;;;;6295390;28;20260;-76
2024/01/08 14:49:17;;;;;;;7.60;7.00;;;-4.70;55.70;;;;;;6300919;28;20254;-77
2024/01/08 14:52:22;;;;;;;8.77;8.03;;;-4.80;55.90;;;;;;6296100;28;20782;-76
2024/01/08 14:55:26;;;;;;;8.00;7.30;;;-4.80;56.20;;;;;;6296788;28;20240;-78
2024/01/08 14:58:31;;;;;;;8.13;7.43;;;-4.80;56.70;;;;;;6295347;28;20357;-76
2024/01/08 15:01:35;;;;;;;8.60;7.83;;;-4.90;57.20;;;;;;6292394;28;20245;-78
2024/01/08 15:04:38;;;;;;;8.73;7.93;;;-5.00;57.60;;;;;;6293571;28;20239;-79
2024/01/08 15:07:41;;;;;;;8.43;7.63;;;-5.10;57.90;;;;;;6304220;28;20391;-77
2024/01/08 15:10:44;;;;;;;9.20;8.40;;;-5.10;58.20;;;;;;6296268;28;20229;-75
2024/01/08 15:13:49;;;;;;;9.37;8.53;;;-5.10;58.50;;;;;;6284564;28;20244;-79
2024/01/08 15:16:52;;;;;;;8.93;8.00;;;-5.10;58.90;;;;;;6299949;28;20740;-78
2024/01/08 15:19:55;;;;;;;9.03;8.33;;;-5.10;59.00;;;;;;6299169;28;20233;-78
2024/01/08 15:22:58;;;;;;;9.80;8.80;;;-5.20;59.30;;;;;;6296730;28;20244;-80
2024/01/08 15:26:05;;;;;;;9.13;8.37;;;-5.20;59.50;;;;;;6296374;28;20251;-75
2024/01/08 15:29:09;;;;;;;8.53;7.77;;;-5.20;59.80;;;;;;6297477;28;21558;-76
2024/01/08 15:32:13;;;;;;;9.23;8.33;;;-5.20;60.00;;;;;;6296960;28;20675;-76
2024/01/08 15:35:20;;;;;;;8.60;7.80;;;-5.20;60.10;;;;;;6298156;28;20740;-79
2024/01/08 15:38:23;;;;;;;8.67;7.90;;;-5.20;60.30;;;;;;6298200;28;20232;-77
2024/01/08 15:41:26;;;;;;;9.23;8.33;;;-5.30;60.50;;;;;;6297983;28;20466;-79
2024/01/08 15:44:31;;;;;;;10.00;9.10;;;-5.40;60.80;;;;;;6297274;28;20248;-76